Terminal Aerodrome Forecast
Issued by NWS

Home | Current Version | Previous Version | Text Only | Print | Product List | Glossary On
Versions: 1 2 3 4 5 6 7 8 9 10 11 12 13 14 15 16 17 18 19 20 21 22 23 24 25 26 27 28
000
FTUS42 KJAX 241354 AAA
TAFVQQ
TAF AMD
KVQQ 241354Z 2414/2512 18015G25KT 5SM TSRA BKN015CB OVC040
      TEMPO 2415/2419 1SM +TSRA OVC008CB
     FM242300 21012G22KT P6SM VCSH OVC025
     FM250400 23015KT P6SM SCT025 BKN040
     FM250900 26009KT P6SM FEW040 BKN100=

USA.gov is the U.S. government's official web portal to all federal, state and local government web resources and services.